sensor_id;sensor_type;location;lat;lon;timestamp;P1;durP1;ratioP1;P2;durP2;ratioP2
52470;SDS011;38382;53.160;7.026;2023-04-08T00:00:43;1999.90;;;999.90;;
52470;SDS011;38382;53.160;7.026;2023-04-08T00:03:10;1999.90;;;999.90;;
52470;SDS011;38382;53.160;7.026;2023-04-08T00:05:35;1999.90;;;999.90;;
52470;SDS011;38382;53.160;7.026;2023-04-08T00:08:01;1999.90;;;999.90;;
52470;SDS011;38382;53.160;7.026;2023-04-08T00:10:27;1999.90;;;999.90;;
52470;SDS011;38382;53.160;7.026;2023-04-08T00:12:53;1999.90;;;999.90;;
52470;SDS011;38382;53.160;7.026;2023-04-08T00:15:19;1999.90;;;999.90;;
52470;SDS011;38382;53.160;7.026;2023-04-08T00:17:45;1999.90;;;999.90;;
52470;SDS011;38382;53.160;7.026;2023-04-08T00:20:11;1999.90;;;999.90;;
52470;SDS011;38382;53.160;7.026;2023-04-08T00:22:37;1999.90;;;999.90;;
52470;SDS011;38382;53.160;7.026;2023-04-08T00:25:03;1999.90;;;999.90;;
52470;SDS011;38382;53.160;7.026;2023-04-08T00:27:33;1999.90;;;999.90;;
52470;SDS011;38382;53.160;7.026;2023-04-08T00:29:59;1999.90;;;999.90;;
52470;SDS011;38382;53.160;7.026;2023-04-08T00:32:26;1999.90;;;999.90;;
52470;SDS011;38382;53.160;7.026;2023-04-08T00:34:52;1999.90;;;999.90;;
52470;SDS011;38382;53.160;7.026;2023-04-08T00:37:18;1999.90;;;999.90;;
52470;SDS011;38382;53.160;7.026;2023-04-08T00:39:43;1999.90;;;999.90;;
52470;SDS011;38382;53.160;7.026;2023-04-08T00:42:10;1999.90;;;999.90;;
52470;SDS011;38382;53.160;7.026;2023-04-08T00:44:35;1999.90;;;999.90;;
52470;SDS011;38382;53.160;7.026;2023-04-08T00:47:02;1999.90;;;999.90;;
52470;SDS011;38382;53.160;7.026;2023-04-08T00:49:29;1999.90;;;999.90;;
52470;SDS011;38382;53.160;7.026;2023-04-08T00:51:55;1999.90;;;999.90;;
52470;SDS011;38382;53.160;7.026;2023-04-08T00:54:21;1999.90;;;999.90;;
52470;SDS011;38382;53.160;7.026;2023-04-08T00:56:47;1999.90;;;999.90;;
52470;SDS011;38382;53.160;7.026;2023-04-08T00:59:13;1999.90;;;999.90;;
52470;SDS011;38382;53.160;7.026;2023-04-08T01:09:43;1999.90;;;999.90;;
52470;SDS011;38382;53.160;7.026;2023-04-08T01:12:12;1999.90;;;999.90;;
52470;SDS011;38382;53.160;7.026;2023-04-08T01:14:45;1999.90;;;999.90;;
52470;SDS011;38382;53.160;7.026;2023-04-08T01:17:12;1999.90;;;999.90;;
52470;SDS011;38382;53.160;7.026;2023-04-08T01:19:41;1999.90;;;999.90;;
52470;SDS011;38382;53.160;7.026;2023-04-08T01:22:22;1999.90;;;999.90;;
52470;SDS011;38382;53.160;7.026;2023-04-08T01:24:58;1999.90;;;999.90;;
52470;SDS011;38382;53.160;7.026;2023-04-08T01:27:29;1999.90;;;999.90;;
52470;SDS011;38382;53.160;7.026;2023-04-08T01:29:57;1999.90;;;999.90;;
52470;SDS011;38382;53.160;7.026;2023-04-08T01:32:25;1999.90;;;999.90;;
52470;SDS011;38382;53.160;7.026;2023-04-08T01:34:53;1999.90;;;999.90;;
52470;SDS011;38382;53.160;7.026;2023-04-08T01:37:23;1999.90;;;999.90;;
52470;SDS011;38382;53.160;7.026;2023-04-08T01:39:50;1999.90;;;999.90;;
52470;SDS011;38382;53.160;7.026;2023-04-08T01:42:18;1999.90;;;999.90;;
52470;SDS011;38382;53.160;7.026;2023-04-08T01:44:46;1999.90;;;999.90;;
52470;SDS011;38382;53.160;7.026;2023-04-08T01:47:13;1999.90;;;999.90;;
52470;SDS011;38382;53.160;7.026;2023-04-08T01:49:39;1999.90;;;999.90;;
52470;SDS011;38382;53.160;7.026;2023-04-08T01:52:07;1999.90;;;999.90;;
52470;SDS011;38382;53.160;7.026;2023-04-08T01:54:34;1999.90;;;999.90;;
52470;SDS011;38382;53.160;7.026;2023-04-08T01:57:00;1999.90;;;999.90;;
52470;SDS011;38382;53.160;7.026;2023-04-08T01:59:30;1999.90;;;999.90;;
52470;SDS011;38382;53.160;7.026;2023-04-08T02:01:59;1999.90;;;999.90;;
52470;SDS011;38382;53.160;7.026;2023-04-08T02:04:29;1999.90;;;999.90;;
52470;SDS011;38382;53.160;7.026;2023-04-08T02:06:54;1999.90;;;999.90;;
52470;SDS011;38382;53.160;7.026;2023-04-08T02:09:20;1999.90;;;999.90;;
52470;SDS011;38382;53.160;7.026;2023-04-08T02:11:46;1999.90;;;999.90;;
52470;SDS011;38382;53.160;7.026;2023-04-08T02:14:12;1999.90;;;999.90;;
52470;SDS011;38382;53.160;7.026;2023-04-08T02:16:39;1999.90;;;999.90;;
52470;SDS011;38382;53.160;7.026;2023-04-08T02:19:11;1999.90;;;999.90;;
52470;SDS011;38382;53.160;7.026;2023-04-08T02:21:45;1999.90;;;999.90;;
52470;SDS011;38382;53.160;7.026;2023-04-08T02:24:15;1999.90;;;999.90;;
52470;SDS011;38382;53.160;7.026;2023-04-08T02:26:41;1999.90;;;999.90;;
52470;SDS011;38382;53.160;7.026;2023-04-08T02:29:13;1999.90;;;999.90;;
52470;SDS011;38382;53.160;7.026;2023-04-08T02:31:41;1999.90;;;999.90;;
52470;SDS011;38382;53.160;7.026;2023-04-08T02:34:09;1999.90;;;999.90;;
52470;SDS011;38382;53.160;7.026;2023-04-08T02:36:35;1999.90;;;999.90;;
52470;SDS011;38382;53.160;7.026;2023-04-08T02:39:04;1999.90;;;999.90;;
52470;SDS011;38382;53.160;7.026;2023-04-08T02:41:30;1999.90;;;999.90;;
52470;SDS011;38382;53.160;7.026;2023-04-08T02:43:56;1999.90;;;999.90;;
52470;SDS011;38382;53.160;7.026;2023-04-08T02:46:22;1999.90;;;999.90;;
52470;SDS011;38382;53.160;7.026;2023-04-08T02:48:48;1999.90;;;999.90;;
52470;SDS011;38382;53.160;7.026;2023-04-08T02:51:14;1999.90;;;999.90;;
52470;SDS011;38382;53.160;7.026;2023-04-08T02:53:40;1999.90;;;999.90;;
52470;SDS011;38382;53.160;7.026;2023-04-08T02:56:08;1999.90;;;999.90;;
52470;SDS011;38382;53.160;7.026;2023-04-08T02:58:35;1999.90;;;999.90;;
52470;SDS011;38382;53.160;7.026;2023-04-08T03:01:01;1999.90;;;999.90;;
52470;SDS011;38382;53.160;7.026;2023-04-08T03:03:26;1999.90;;;999.90;;
52470;SDS011;38382;53.160;7.026;2023-04-08T03:05:56;1999.90;;;999.90;;
52470;SDS011;38382;53.160;7.026;2023-04-08T03:08:22;1999.90;;;999.90;;
52470;SDS011;38382;53.160;7.026;2023-04-08T03:10:48;1999.90;;;999.90;;
52470;SDS011;38382;53.160;7.026;2023-04-08T03:13:14;1999.90;;;999.90;;
52470;SDS011;38382;53.160;7.026;2023-04-08T03:15:41;1999.90;;;999.90;;
52470;SDS011;38382;53.160;7.026;2023-04-08T03:18:07;1999.90;;;999.90;;
52470;SDS011;38382;53.160;7.026;2023-04-08T03:20:33;1999.90;;;999.90;;
52470;SDS011;38382;53.160;7.026;2023-04-08T03:22:58;1999.90;;;999.90;;
52470;SDS011;38382;53.160;7.026;2023-04-08T03:25:24;1999.90;;;999.90;;
52470;SDS011;38382;53.160;7.026;2023-04-08T03:27:50;1999.90;;;999.90;;
52470;SDS011;38382;53.160;7.026;2023-04-08T03:30:16;1999.90;;;999.90;;
52470;SDS011;38382;53.160;7.026;2023-04-08T03:32:42;1999.90;;;999.90;;
52470;SDS011;38382;53.160;7.026;2023-04-08T03:35:08;1999.90;;;999.90;;
52470;SDS011;38382;53.160;7.026;2023-04-08T03:37:33;1999.90;;;999.90;;
52470;SDS011;38382;53.160;7.026;2023-04-08T03:39:59;1999.90;;;999.90;;
52470;SDS011;38382;53.160;7.026;2023-04-08T03:42:25;1999.90;;;999.90;;
52470;SDS011;38382;53.160;7.026;2023-04-08T03:44:51;1999.90;;;999.90;;
52470;SDS011;38382;53.160;7.026;2023-04-08T03:47:17;1999.90;;;999.90;;
52470;SDS011;38382;53.160;7.026;2023-04-08T03:49:42;1999.90;;;999.90;;
52470;SDS011;38382;53.160;7.026;2023-04-08T03:52:08;1999.90;;;999.90;;
52470;SDS011;38382;53.160;7.026;2023-04-08T03:54:34;1999.90;;;999.90;;
52470;SDS011;38382;53.160;7.026;2023-04-08T03:57:00;1999.90;;;999.90;;
52470;SDS011;38382;53.160;7.026;2023-04-08T03:59:25;1999.90;;;999.90;;
52470;SDS011;38382;53.160;7.026;2023-04-08T04:01:51;1999.90;;;999.90;;
52470;SDS011;38382;53.160;7.026;2023-04-08T04:04:17;1999.90;;;999.90;;
52470;SDS011;38382;53.160;7.026;2023-04-08T04:06:43;1999.90;;;999.90;;
52470;SDS011;38382;53.160;7.026;2023-04-08T04:09:09;1999.90;;;999.90;;
52470;SDS011;38382;53.160;7.026;2023-04-08T04:11:35;1999.90;;;999.90;;
52470;SDS011;38382;53.160;7.026;2023-04-08T04:14:01;1999.90;;;999.90;;
52470;SDS011;38382;53.160;7.026;2023-04-08T04:16:27;1999.90;;;999.90;;
52470;SDS011;38382;53.160;7.026;2023-04-08T04:18:53;1999.90;;;999.90;;
52470;SDS011;38382;53.160;7.026;2023-04-08T04:21:19;1999.90;;;999.90;;
52470;SDS011;38382;53.160;7.026;2023-04-08T04:23:45;1999.90;;;999.90;;
52470;SDS011;38382;53.160;7.026;2023-04-08T04:26:10;1999.90;;;999.90;;
52470;SDS011;38382;53.160;7.026;2023-04-08T04:28:36;68.28;;;63.72;;
52470;SDS011;38382;53.160;7.026;2023-04-08T04:31:03;55.42;;;51.10;;
52470;SDS011;38382;53.160;7.026;2023-04-08T04:33:29;1999.90;;;999.90;;
52470;SDS011;38382;53.160;7.026;2023-04-08T04:35:55;43.22;;;39.25;;
52470;SDS011;38382;53.160;7.026;2023-04-08T04:38:21;39.28;;;35.15;;
52470;SDS011;38382;53.160;7.026;2023-04-08T04:40:47;39.38;;;35.10;;
52470;SDS011;38382;53.160;7.026;2023-04-08T04:43:13;1999.90;;;999.90;;
52470;SDS011;38382;53.160;7.026;2023-04-08T04:45:38;1999.90;;;999.90;;
52470;SDS011;38382;53.160;7.026;2023-04-08T04:48:04;1999.90;;;999.90;;
52470;SDS011;38382;53.160;7.026;2023-04-08T04:50:30;1999.90;;;999.90;;
52470;SDS011;38382;53.160;7.026;2023-04-08T04:52:56;38.60;;;34.83;;
52470;SDS011;38382;53.160;7.026;2023-04-08T04:55:22;37.42;;;33.38;;
52470;SDS011;38382;53.160;7.026;2023-04-08T04:57:48;60.78;;;55.67;;
52470;SDS011;38382;53.160;7.026;2023-04-08T05:00:14;49.05;;;44.10;;
52470;SDS011;38382;53.160;7.026;2023-04-08T05:02:41;1999.90;;;999.90;;
52470;SDS011;38382;53.160;7.026;2023-04-08T05:05:06;1999.90;;;999.90;;
52470;SDS011;38382;53.160;7.026;2023-04-08T05:07:36;1999.90;;;999.90;;
52470;SDS011;38382;53.160;7.026;2023-04-08T05:10:03;1999.90;;;999.90;;
52470;SDS011;38382;53.160;7.026;2023-04-08T05:12:29;1999.90;;;999.90;;
52470;SDS011;38382;53.160;7.026;2023-04-08T05:14:57;1999.90;;;999.90;;
52470;SDS011;38382;53.160;7.026;2023-04-08T05:17:23;1999.90;;;999.90;;
52470;SDS011;38382;53.160;7.026;2023-04-08T05:19:49;1999.90;;;999.90;;
52470;SDS011;38382;53.160;7.026;2023-04-08T05:22:17;1999.90;;;999.90;;
52470;SDS011;38382;53.160;7.026;2023-04-08T05:24:43;1999.90;;;999.90;;
52470;SDS011;38382;53.160;7.026;2023-04-08T05:27:08;1999.90;;;999.90;;
52470;SDS011;38382;53.160;7.026;2023-04-08T05:29:34;1999.90;;;999.90;;
52470;SDS011;38382;53.160;7.026;2023-04-08T05:32:00;1999.90;;;999.90;;
52470;SDS011;38382;53.160;7.026;2023-04-08T05:34:26;1999.90;;;999.90;;
52470;SDS011;38382;53.160;7.026;2023-04-08T05:36:51;1999.90;;;999.90;;
52470;SDS011;38382;53.160;7.026;2023-04-08T05:39:17;1999.90;;;999.90;;
52470;SDS011;38382;53.160;7.026;2023-04-08T05:41:44;1999.90;;;999.90;;
52470;SDS011;38382;53.160;7.026;2023-04-08T05:44:10;1999.90;;;999.90;;
52470;SDS011;38382;53.160;7.026;2023-04-08T05:46:37;1999.90;;;999.90;;
52470;SDS011;38382;53.160;7.026;2023-04-08T05:49:03;1999.90;;;999.90;;
52470;SDS011;38382;53.160;7.026;2023-04-08T05:51:28;1999.90;;;999.90;;
52470;SDS011;38382;53.160;7.026;2023-04-08T05:53:54;1999.90;;;999.90;;
52470;SDS011;38382;53.160;7.026;2023-04-08T05:56:20;1999.90;;;999.90;;
52470;SDS011;38382;53.160;7.026;2023-04-08T05:58:46;1999.90;;;999.90;;
52470;SDS011;38382;53.160;7.026;2023-04-08T06:01:12;373.65;;;172.80;;
52470;SDS011;38382;53.160;7.026;2023-04-08T06:03:37;38.30;;;19.50;;
52470;SDS011;38382;53.160;7.026;2023-04-08T06:06:08;34.40;;;25.25;;
52470;SDS011;38382;53.160;7.026;2023-04-08T06:08:35;30.35;;;18.73;;
52470;SDS011;38382;53.160;7.026;2023-04-08T06:11:01;34.08;;;21.20;;
52470;SDS011;38382;53.160;7.026;2023-04-08T06:13:29;1521.55;;;764.03;;
52470;SDS011;38382;53.160;7.026;2023-04-08T06:15:55;96.20;;;88.13;;
52470;SDS011;38382;53.160;7.026;2023-04-08T06:18:21;1999.90;;;999.90;;
52470;SDS011;38382;53.160;7.026;2023-04-08T06:20:47;1999.90;;;999.90;;
52470;SDS011;38382;53.160;7.026;2023-04-08T06:23:13;1999.90;;;999.90;;
52470;SDS011;38382;53.160;7.026;2023-04-08T06:25:40;90.95;;;84.60;;
52470;SDS011;38382;53.160;7.026;2023-04-08T06:28:06;1999.90;;;999.90;;
52470;SDS011;38382;53.160;7.026;2023-04-08T06:30:32;164.38;;;153.98;;
52470;SDS011;38382;53.160;7.026;2023-04-08T06:32:57;100.65;;;92.97;;
52470;SDS011;38382;53.160;7.026;2023-04-08T06:35:23;1999.90;;;999.90;;
52470;SDS011;38382;53.160;7.026;2023-04-08T06:37:49;1999.90;;;999.90;;
52470;SDS011;38382;53.160;7.026;2023-04-08T06:40:15;1999.90;;;999.90;;
52470;SDS011;38382;53.160;7.026;2023-04-08T06:42:41;1999.90;;;999.90;;
52470;SDS011;38382;53.160;7.026;2023-04-08T06:45:08;1999.90;;;999.90;;
52470;SDS011;38382;53.160;7.026;2023-04-08T06:47:35;135.77;;;99.13;;
52470;SDS011;38382;53.160;7.026;2023-04-08T06:50:01;65.50;;;60.08;;
52470;SDS011;38382;53.160;7.026;2023-04-08T06:52:26;127.25;;;107.10;;
52470;SDS011;38382;53.160;7.026;2023-04-08T06:54:52;91.70;;;84.40;;
52470;SDS011;38382;53.160;7.026;2023-04-08T06:57:18;78.47;;;72.80;;
52470;SDS011;38382;53.160;7.026;2023-04-08T06:59:44;47.05;;;42.90;;
52470;SDS011;38382;53.160;7.026;2023-04-08T07:02:10;55.25;;;38.15;;
52470;SDS011;38382;53.160;7.026;2023-04-08T07:04:36;1999.90;;;999.90;;
52470;SDS011;38382;53.160;7.026;2023-04-08T07:07:02;1999.90;;;999.90;;
52470;SDS011;38382;53.160;7.026;2023-04-08T07:09:28;1999.90;;;999.90;;
52470;SDS011;38382;53.160;7.026;2023-04-08T07:11:54;47.65;;;43.47;;
52470;SDS011;38382;53.160;7.026;2023-04-08T07:14:19;23.30;;;17.95;;
52470;SDS011;38382;53.160;7.026;2023-04-08T07:16:45;309.60;;;166.15;;
52470;SDS011;38382;53.160;7.026;2023-04-08T07:19:11;61.22;;;25.85;;
52470;SDS011;38382;53.160;7.026;2023-04-08T07:21:37;26.65;;;20.63;;
52470;SDS011;38382;53.160;7.026;2023-04-08T07:24:03;25.38;;;18.23;;
52470;SDS011;38382;53.160;7.026;2023-04-08T07:26:29;42.13;;;37.97;;
52470;SDS011;38382;53.160;7.026;2023-04-08T07:28:55;21.63;;;17.17;;
52470;SDS011;38382;53.160;7.026;2023-04-08T07:31:21;113.22;;;105.22;;
52470;SDS011;38382;53.160;7.026;2023-04-08T07:33:46;29.83;;;26.63;;
52470;SDS011;38382;53.160;7.026;2023-04-08T07:36:13;19.70;;;13.18;;
52470;SDS011;38382;53.160;7.026;2023-04-08T07:38:39;23.13;;;14.10;;
52470;SDS011;38382;53.160;7.026;2023-04-08T07:41:05;20.60;;;12.57;;
52470;SDS011;38382;53.160;7.026;2023-04-08T07:43:31;21.00;;;13.75;;
52470;SDS011;38382;53.160;7.026;2023-04-08T07:46:01;21.15;;;13.65;;
52470;SDS011;38382;53.160;7.026;2023-04-08T07:48:29;22.38;;;15.48;;
52470;SDS011;38382;53.160;7.026;2023-04-08T07:50:55;23.05;;;16.88;;
52470;SDS011;38382;53.160;7.026;2023-04-08T07:53:21;24.38;;;21.55;;
52470;SDS011;38382;53.160;7.026;2023-04-08T07:55:51;38.83;;;35.25;;
52470;SDS011;38382;53.160;7.026;2023-04-08T07:58:17;71.97;;;67.28;;
52470;SDS011;38382;53.160;7.026;2023-04-08T08:00:43;89.55;;;84.00;;
52470;SDS011;38382;53.160;7.026;2023-04-08T08:03:09;60.17;;;55.97;;
52470;SDS011;38382;53.160;7.026;2023-04-08T08:05:35;33.63;;;30.60;;
52470;SDS011;38382;53.160;7.026;2023-04-08T08:08:01;21.40;;;12.40;;
52470;SDS011;38382;53.160;7.026;2023-04-08T08:10:27;21.45;;;12.50;;
52470;SDS011;38382;53.160;7.026;2023-04-08T08:12:53;21.33;;;11.88;;
52470;SDS011;38382;53.160;7.026;2023-04-08T08:15:19;16.73;;;10.70;;
52470;SDS011;38382;53.160;7.026;2023-04-08T08:17:45;16.02;;;9.45;;
52470;SDS011;38382;53.160;7.026;2023-04-08T08:20:10;18.45;;;10.02;;
52470;SDS011;38382;53.160;7.026;2023-04-08T08:22:36;17.58;;;9.82;;
52470;SDS011;38382;53.160;7.026;2023-04-08T08:25:04;14.40;;;9.00;;
52470;SDS011;38382;53.160;7.026;2023-04-08T08:27:30;15.02;;;8.65;;
52470;SDS011;38382;53.160;7.026;2023-04-08T08:29:58;14.05;;;8.82;;
52470;SDS011;38382;53.160;7.026;2023-04-08T08:32:24;15.18;;;8.48;;
52470;SDS011;38382;53.160;7.026;2023-04-08T08:34:50;14.60;;;7.47;;
52470;SDS011;38382;53.160;7.026;2023-04-08T08:37:15;18.35;;;9.80;;
52470;SDS011;38382;53.160;7.026;2023-04-08T08:39:41;20.08;;;10.57;;
52470;SDS011;38382;53.160;7.026;2023-04-08T08:42:17;18.20;;;10.38;;
52470;SDS011;38382;53.160;7.026;2023-04-08T08:44:44;17.58;;;10.48;;
52470;SDS011;38382;53.160;7.026;2023-04-08T08:47:10;18.45;;;10.75;;
52470;SDS011;38382;53.160;7.026;2023-04-08T08:49:36;19.65;;;11.10;;
52470;SDS011;38382;53.160;7.026;2023-04-08T08:52:01;19.10;;;10.70;;
52470;SDS011;38382;53.160;7.026;2023-04-08T08:54:27;21.08;;;12.20;;
52470;SDS011;38382;53.160;7.026;2023-04-08T08:56:53;18.52;;;11.55;;
52470;SDS011;38382;53.160;7.026;2023-04-08T08:59:19;15.02;;;8.40;;
52470;SDS011;38382;53.160;7.026;2023-04-08T09:01:45;18.20;;;8.52;;
52470;SDS011;38382;53.160;7.026;2023-04-08T09:04:15;17.63;;;9.40;;
52470;SDS011;38382;53.160;7.026;2023-04-08T09:06:47;17.92;;;8.88;;
52470;SDS011;38382;53.160;7.026;2023-04-08T09:09:16;331.33;;;148.82;;
52470;SDS011;38382;53.160;7.026;2023-04-08T09:11:45;16.17;;;11.05;;
52470;SDS011;38382;53.160;7.026;2023-04-08T09:14:21;15.32;;;10.98;;
52470;SDS011;38382;53.160;7.026;2023-04-08T09:16:48;12.80;;;8.77;;
52470;SDS011;38382;53.160;7.026;2023-04-08T09:19:14;14.57;;;9.10;;
52470;SDS011;38382;53.160;7.026;2023-04-08T09:21:40;12.02;;;6.97;;
52470;SDS011;38382;53.160;7.026;2023-04-08T09:24:07;7.53;;;4.03;;
52470;SDS011;38382;53.160;7.026;2023-04-08T09:26:35;6.30;;;4.32;;
52470;SDS011;38382;53.160;7.026;2023-04-08T09:31:37;6.70;;;4.18;;
52470;SDS011;38382;53.160;7.026;2023-04-08T09:34:08;8.10;;;4.07;;
52470;SDS011;38382;53.160;7.026;2023-04-08T09:36:36;2.80;;;1.38;;
52470;SDS011;38382;53.160;7.026;2023-04-08T09:39:02;1.65;;;1.55;;
52470;SDS011;38382;53.160;7.026;2023-04-08T09:41:28;1.73;;;1.58;;
52470;SDS011;38382;53.160;7.026;2023-04-08T09:44:01;2.78;;;1.65;;
52470;SDS011;38382;53.160;7.026;2023-04-08T09:52:05;10.98;;;5.88;;
52470;SDS011;38382;53.160;7.026;2023-04-08T09:57:36;12.90;;;4.38;;
52470;SDS011;38382;53.160;7.026;2023-04-08T10:00:32;10.27;;;4.45;;
52470;SDS011;38382;53.160;7.026;2023-04-08T10:03:29;13.60;;;6.55;;
52470;SDS011;38382;53.160;7.026;2023-04-08T10:05:57;13.93;;;5.35;;
52470;SDS011;38382;53.160;7.026;2023-04-08T10:08:26;12.05;;;5.72;;
52470;SDS011;38382;53.160;7.026;2023-04-08T10:10:52;15.80;;;6.18;;
52470;SDS011;38382;53.160;7.026;2023-04-08T10:13:20;13.82;;;6.15;;
52470;SDS011;38382;53.160;7.026;2023-04-08T10:15:46;12.40;;;5.72;;
52470;SDS011;38382;53.160;7.026;2023-04-08T10:23:04;12.90;;;6.03;;
52470;SDS011;38382;53.160;7.026;2023-04-08T10:25:32;15.95;;;7.32;;
52470;SDS011;38382;53.160;7.026;2023-04-08T10:27:59;16.00;;;6.05;;
52470;SDS011;38382;53.160;7.026;2023-04-08T10:35:30;19.05;;;6.85;;
52470;SDS011;38382;53.160;7.026;2023-04-08T10:37:59;12.80;;;6.82;;
52470;SDS011;38382;53.160;7.026;2023-04-08T10:40:26;20.25;;;7.13;;
52470;SDS011;38382;53.160;7.026;2023-04-08T10:45:20;8.63;;;5.15;;
52470;SDS011;38382;53.160;7.026;2023-04-08T10:47:46;11.23;;;5.70;;
52470;SDS011;38382;53.160;7.026;2023-04-08T10:50:13;9.18;;;5.53;;
52470;SDS011;38382;53.160;7.026;2023-04-08T10:53:00;12.68;;;7.40;;
52470;SDS011;38382;53.160;7.026;2023-04-08T10:55:26;14.60;;;6.63;;
52470;SDS011;38382;53.160;7.026;2023-04-08T10:57:52;14.30;;;6.47;;
52470;SDS011;38382;53.160;7.026;2023-04-08T11:00:40;11.65;;;5.78;;
52470;SDS011;38382;53.160;7.026;2023-04-08T11:03:06;9.80;;;4.07;;
52470;SDS011;38382;53.160;7.026;2023-04-08T11:05:33;3.08;;;2.25;;
52470;SDS011;38382;53.160;7.026;2023-04-08T11:08:00;9.90;;;5.28;;
52470;SDS011;38382;53.160;7.026;2023-04-08T11:10:27;45.65;;;25.90;;
52470;SDS011;38382;53.160;7.026;2023-04-08T11:12:53;0.57;;;0.57;;
52470;SDS011;38382;53.160;7.026;2023-04-08T11:15:20;1.05;;;1.05;;
52470;SDS011;38382;53.160;7.026;2023-04-08T11:17:46;0.80;;;0.75;;
52470;SDS011;38382;53.160;7.026;2023-04-08T11:20:13;0.98;;;0.95;;
52470;SDS011;38382;53.160;7.026;2023-04-08T11:22:39;1.38;;;1.27;;
52470;SDS011;38382;53.160;7.026;2023-04-08T11:25:06;0.50;;;0.50;;
52470;SDS011;38382;53.160;7.026;2023-04-08T11:27:34;7.10;;;3.85;;
52470;SDS011;38382;53.160;7.026;2023-04-08T11:30:00;10.18;;;6.13;;
52470;SDS011;38382;53.160;7.026;2023-04-08T11:32:27;16.42;;;6.95;;
52470;SDS011;38382;53.160;7.026;2023-04-08T11:34:54;10.32;;;5.85;;
52470;SDS011;38382;53.160;7.026;2023-04-08T11:37:20;10.43;;;6.22;;
52470;SDS011;38382;53.160;7.026;2023-04-08T11:39:46;15.57;;;6.47;;
52470;SDS011;38382;53.160;7.026;2023-04-08T11:42:31;11.40;;;5.82;;
52470;SDS011;38382;53.160;7.026;2023-04-08T11:44:57;11.00;;;5.53;;
52470;SDS011;38382;53.160;7.026;2023-04-08T11:47:30;12.05;;;5.45;;
52470;SDS011;38382;53.160;7.026;2023-04-08T11:49:57;15.52;;;5.68;;
52470;SDS011;38382;53.160;7.026;2023-04-08T11:52:39;18.85;;;5.13;;
52470;SDS011;38382;53.160;7.026;2023-04-08T11:55:05;11.57;;;5.85;;
52470;SDS011;38382;53.160;7.026;2023-04-08T11:57:31;10.90;;;5.05;;
52470;SDS011;38382;53.160;7.026;2023-04-08T11:59:57;15.00;;;4.75;;
52470;SDS011;38382;53.160;7.026;2023-04-08T12:02:22;18.45;;;6.80;;
52470;SDS011;38382;53.160;7.026;2023-04-08T12:04:48;10.88;;;4.65;;
52470;SDS011;38382;53.160;7.026;2023-04-08T12:07:15;20.70;;;10.57;;
52470;SDS011;38382;53.160;7.026;2023-04-08T12:09:41;12.65;;;6.07;;
52470;SDS011;38382;53.160;7.026;2023-04-08T12:12:07;5.30;;;3.67;;
52470;SDS011;38382;53.160;7.026;2023-04-08T12:14:33;9.07;;;4.70;;
52470;SDS011;38382;53.160;7.026;2023-04-08T12:16:58;11.95;;;5.95;;
52470;SDS011;38382;53.160;7.026;2023-04-08T12:19:24;7.70;;;5.57;;
52470;SDS011;38382;53.160;7.026;2023-04-08T12:21:51;6.70;;;4.35;;
52470;SDS011;38382;53.160;7.026;2023-04-08T12:24:16;5.72;;;3.28;;
52470;SDS011;38382;53.160;7.026;2023-04-08T12:26:42;3.90;;;3.50;;
52470;SDS011;38382;53.160;7.026;2023-04-08T12:29:08;9.85;;;4.95;;
52470;SDS011;38382;53.160;7.026;2023-04-08T12:31:35;16.98;;;6.53;;
52470;SDS011;38382;53.160;7.026;2023-04-08T12:34:01;17.63;;;4.35;;
52470;SDS011;38382;53.160;7.026;2023-04-08T12:36:27;9.23;;;4.57;;
52470;SDS011;38382;53.160;7.026;2023-04-08T12:38:53;6.43;;;5.40;;
52470;SDS011;38382;53.160;7.026;2023-04-08T12:41:18;9.45;;;5.53;;
52470;SDS011;38382;53.160;7.026;2023-04-08T12:43:44;7.18;;;3.25;;
52470;SDS011;38382;53.160;7.026;2023-04-08T12:46:10;11.63;;;3.55;;
52470;SDS011;38382;53.160;7.026;2023-04-08T12:48:36;8.82;;;3.97;;
52470;SDS011;38382;53.160;7.026;2023-04-08T12:51:02;10.60;;;3.15;;
52470;SDS011;38382;53.160;7.026;2023-04-08T12:53:28;11.18;;;5.53;;
52470;SDS011;38382;53.160;7.026;2023-04-08T12:55:54;25.17;;;12.65;;
52470;SDS011;38382;53.160;7.026;2023-04-08T12:58:22;26.55;;;12.13;;
52470;SDS011;38382;53.160;7.026;2023-04-08T13:00:49;23.60;;;12.95;;
52470;SDS011;38382;53.160;7.026;2023-04-08T13:03:15;23.40;;;10.77;;
52470;SDS011;38382;53.160;7.026;2023-04-08T13:05:42;23.75;;;11.38;;
52470;SDS011;38382;53.160;7.026;2023-04-08T13:08:08;24.58;;;10.25;;
52470;SDS011;38382;53.160;7.026;2023-04-08T13:10:35;30.08;;;13.45;;
52470;SDS011;38382;53.160;7.026;2023-04-08T13:13:01;25.02;;;11.70;;
52470;SDS011;38382;53.160;7.026;2023-04-08T13:15:27;6.40;;;3.63;;
52470;SDS011;38382;53.160;7.026;2023-04-08T13:17:53;18.67;;;9.57;;
52470;SDS011;38382;53.160;7.026;2023-04-08T13:20:19;18.90;;;10.57;;
52470;SDS011;38382;53.160;7.026;2023-04-08T13:22:48;20.48;;;9.73;;
52470;SDS011;38382;53.160;7.026;2023-04-08T13:25:14;15.07;;;8.55;;
52470;SDS011;38382;53.160;7.026;2023-04-08T13:27:40;19.13;;;9.75;;
52470;SDS011;38382;53.160;7.026;2023-04-08T13:30:06;23.33;;;10.15;;
52470;SDS011;38382;53.160;7.026;2023-04-08T13:32:32;19.88;;;9.88;;
52470;SDS011;38382;53.160;7.026;2023-04-08T13:34:57;25.00;;;11.25;;
52470;SDS011;38382;53.160;7.026;2023-04-08T13:37:23;25.00;;;11.50;;
52470;SDS011;38382;53.160;7.026;2023-04-08T13:39:49;31.63;;;11.10;;
52470;SDS011;38382;53.160;7.026;2023-04-08T13:42:15;26.10;;;12.25;;
52470;SDS011;38382;53.160;7.026;2023-04-08T13:44:40;19.88;;;9.00;;
52470;SDS011;38382;53.160;7.026;2023-04-08T13:47:06;21.65;;;10.68;;
52470;SDS011;38382;53.160;7.026;2023-04-08T13:49:32;16.60;;;10.75;;
52470;SDS011;38382;53.160;7.026;2023-04-08T13:51:57;14.82;;;8.32;;
52470;SDS011;38382;53.160;7.026;2023-04-08T13:54:24;17.15;;;8.48;;
52470;SDS011;38382;53.160;7.026;2023-04-08T13:56:50;16.85;;;10.02;;
52470;SDS011;38382;53.160;7.026;2023-04-08T13:59:16;27.38;;;14.95;;
52470;SDS011;38382;53.160;7.026;2023-04-08T14:01:42;26.88;;;14.05;;
52470;SDS011;38382;53.160;7.026;2023-04-08T14:04:07;22.60;;;13.45;;
52470;SDS011;38382;53.160;7.026;2023-04-08T14:06:33;32.22;;;16.02;;
52470;SDS011;38382;53.160;7.026;2023-04-08T14:09:00;25.42;;;13.63;;
52470;SDS011;38382;53.160;7.026;2023-04-08T14:11:26;29.08;;;13.13;;
52470;SDS011;38382;53.160;7.026;2023-04-08T14:13:52;26.95;;;12.63;;
52470;SDS011;38382;53.160;7.026;2023-04-08T14:16:17;27.67;;;12.52;;
52470;SDS011;38382;53.160;7.026;2023-04-08T14:18:43;22.40;;;10.85;;
52470;SDS011;38382;53.160;7.026;2023-04-08T14:21:09;83.50;;;57.72;;
52470;SDS011;38382;53.160;7.026;2023-04-08T14:23:36;41.53;;;17.73;;
52470;SDS011;38382;53.160;7.026;2023-04-08T14:26:02;45.33;;;22.65;;
52470;SDS011;38382;53.160;7.026;2023-04-08T14:28:28;44.67;;;23.45;;
52470;SDS011;38382;53.160;7.026;2023-04-08T14:30:54;41.60;;;23.13;;
52470;SDS011;38382;53.160;7.026;2023-04-08T14:33:20;50.95;;;30.30;;
52470;SDS011;38382;53.160;7.026;2023-04-08T14:35:46;38.10;;;18.70;;
52470;SDS011;38382;53.160;7.026;2023-04-08T14:38:11;44.28;;;24.40;;